sensor_id;sensor_type;location;lat;lon;timestamp;pressure;altitude;pressure_sealevel;temperature;humidity
72677;BME280;60755;51.374;10.662;2023-04-16T00:02:01;97057.78;;;7.75;100.00
72677;BME280;60755;51.374;10.662;2023-04-16T00:04:28;97058.78;;;7.74;100.00
72677;BME280;60755;51.374;10.662;2023-04-16T00:06:56;97051.97;;;7.73;100.00
72677;BME280;60755;51.374;10.662;2023-04-16T00:09:23;97057.19;;;7.73;100.00
72677;BME280;60755;51.374;10.662;2023-04-16T00:11:50;97066.63;;;7.74;100.00
72677;BME280;60755;51.374;10.662;2023-04-16T00:14:17;97065.28;;;7.72;100.00
72677;BME280;60755;51.374;10.662;2023-04-16T00:16:43;97064.47;;;7.71;100.00
72677;BME280;60755;51.374;10.662;2023-04-16T00:19:12;97067.66;;;7.73;100.00
72677;BME280;60755;51.374;10.662;2023-04-16T00:21:39;97062.44;;;7.73;100.00
72677;BME280;60755;51.374;10.662;2023-04-16T00:24:06;97056.63;;;7.71;100.00
72677;BME280;60755;51.374;10.662;2023-04-16T00:26:33;97056.63;;;7.71;100.00
72677;BME280;60755;51.374;10.662;2023-04-16T00:29:00;97057.44;;;7.72;100.00
72677;BME280;60755;51.374;10.662;2023-04-16T00:31:27;97064.09;;;7.68;100.00
72677;BME280;60755;51.374;10.662;2023-04-16T00:33:55;97065.69;;;7.69;100.00
72677;BME280;60755;51.374;10.662;2023-04-16T00:36:24;97064.25;;;7.73;100.00
72677;BME280;60755;51.374;10.662;2023-04-16T00:38:51;97066.50;;;7.69;100.00
72677;BME280;60755;51.374;10.662;2023-04-16T00:41:19;97072.75;;;7.68;100.00
72677;BME280;60755;51.374;10.662;2023-04-16T00:43:47;97070.72;;;7.70;100.00
72677;BME280;60755;51.374;10.662;2023-04-16T00:46:14;97073.34;;;7.70;100.00
72677;BME280;60755;51.374;10.662;2023-04-16T00:48:42;97070.94;;;7.69;100.00
72677;BME280;60755;51.374;10.662;2023-04-16T00:51:10;97068.91;;;7.71;100.00
72677;BME280;60755;51.374;10.662;2023-04-16T00:53:38;97072.09;;;7.73;100.00
72677;BME280;60755;51.374;10.662;2023-04-16T00:56:06;97075.72;;;7.72;100.00
72677;BME280;60755;51.374;10.662;2023-04-16T00:58:33;97073.91;;;7.72;100.00
72677;BME280;60755;51.374;10.662;2023-04-16T01:01:01;97078.13;;;7.73;100.00
72677;BME280;60755;51.374;10.662;2023-04-16T01:03:36;97074.94;;;7.71;100.00
72677;BME280;60755;51.374;10.662;2023-04-16T01:06:04;97073.34;;;7.70;100.00
72677;BME280;60755;51.374;10.662;2023-04-16T01:08:31;97076.53;;;7.72;100.00
72677;BME280;60755;51.374;10.662;2023-04-16T01:11:00;97082.19;;;7.69;100.00
72677;BME280;60755;51.374;10.662;2023-04-16T01:13:27;97075.34;;;7.68;100.00
72677;BME280;60755;51.374;10.662;2023-04-16T01:15:55;97080.81;;;7.67;100.00
72677;BME280;60755;51.374;10.662;2023-04-16T01:18:22;97076.16;;;7.69;100.00
72677;BME280;60755;51.374;10.662;2023-04-16T01:20:51;97078.19;;;7.67;100.00
72677;BME280;60755;51.374;10.662;2023-04-16T01:23:18;97084.78;;;7.69;100.00
72677;BME280;60755;51.374;10.662;2023-04-16T01:25:46;97079.00;;;7.67;100.00
72677;BME280;60755;51.374;10.662;2023-04-16T01:28:13;97079.00;;;7.67;100.00
72677;BME280;60755;51.374;10.662;2023-04-16T01:30:40;97078.19;;;7.67;100.00
72677;BME280;60755;51.374;10.662;2023-04-16T01:33:17;97083.22;;;7.68;100.00
72677;BME280;60755;51.374;10.662;2023-04-16T01:35:44;97080.59;;;7.68;100.00
72677;BME280;60755;51.374;10.662;2023-04-16T01:38:15;97083.44;;;7.67;100.00
72677;BME280;60755;51.374;10.662;2023-04-16T01:40:42;97087.41;;;7.69;100.00
72677;BME280;60755;51.374;10.662;2023-04-16T01:43:09;97087.88;;;7.66;100.00
72677;BME280;60755;51.374;10.662;2023-04-16T01:45:36;97087.88;;;7.66;100.00
72677;BME280;60755;51.374;10.662;2023-04-16T01:48:03;97091.50;;;7.65;100.00
72677;BME280;60755;51.374;10.662;2023-04-16T01:50:30;97085.03;;;7.68;100.00
72677;BME280;60755;51.374;10.662;2023-04-16T01:52:57;97089.91;;;7.64;100.00
72677;BME280;60755;51.374;10.662;2023-04-16T01:55:29;97095.72;;;7.66;100.00
72677;BME280;60755;51.374;10.662;2023-04-16T01:57:55;97093.09;;;7.66;100.00
72677;BME280;60755;51.374;10.662;2023-04-16T02:00:26;97087.88;;;7.66;100.00
72677;BME280;60755;51.374;10.662;2023-04-16T02:02:53;97105.16;;;7.67;100.00
72677;BME280;60755;51.374;10.662;2023-04-16T02:05:25;97104.28;;;7.73;100.00
72677;BME280;60755;51.374;10.662;2023-04-16T02:07:52;97099.91;;;7.67;100.00
72677;BME280;60755;51.374;10.662;2023-04-16T02:10:19;97107.19;;;7.65;100.00
72677;BME280;60755;51.374;10.662;2023-04-16T02:12:48;97101.50;;;7.68;100.00
72677;BME280;60755;51.374;10.662;2023-04-16T02:15:16;97103.91;;;7.70;100.00
72677;BME280;60755;51.374;10.662;2023-04-16T02:17:43;97104.72;;;7.70;100.00
72677;BME280;60755;51.374;10.662;2023-04-16T02:20:12;97102.31;;;7.69;100.00
72677;BME280;60755;51.374;10.662;2023-04-16T02:22:46;97111.56;;;7.71;100.00
72677;BME280;60755;51.374;10.662;2023-04-16T02:25:17;97101.50;;;7.68;100.00
72677;BME280;60755;51.374;10.662;2023-04-16T02:27:44;97093.31;;;7.65;100.00
72677;BME280;60755;51.374;10.662;2023-04-16T02:30:25;97106.75;;;7.68;100.00
72677;BME280;60755;51.374;10.662;2023-04-16T02:32:53;97102.97;;;7.64;100.00
72677;BME280;60755;51.374;10.662;2023-04-16T02:35:20;97107.63;;;7.62;100.00
72677;BME280;60755;51.374;10.662;2023-04-16T02:37:48;97105.03;;;7.62;100.00
72677;BME280;60755;51.374;10.662;2023-04-16T02:40:15;97113.44;;;7.64;100.00
72677;BME280;60755;51.374;10.662;2023-04-16T02:42:42;97117.06;;;7.63;100.00
72677;BME280;60755;51.374;10.662;2023-04-16T02:45:10;97119.09;;;7.61;100.00
72677;BME280;60755;51.374;10.662;2023-04-16T02:47:38;97114.31;;;7.58;100.00
72677;BME280;60755;51.374;10.662;2023-04-16T02:50:06;97114.88;;;7.60;100.00
72677;BME280;60755;51.374;10.662;2023-04-16T02:52:33;97123.41;;;7.55;100.00
72677;BME280;60755;51.374;10.662;2023-04-16T02:55:00;97120.41;;;7.52;100.00
72677;BME280;60755;51.374;10.662;2023-04-16T02:57:27;97121.41;;;7.51;100.00
72677;BME280;60755;51.374;10.662;2023-04-16T02:59:54;97126.66;;;7.51;100.00
72677;BME280;60755;51.374;10.662;2023-04-16T03:02:21;97114.16;;;7.53;100.00
72677;BME280;60755;51.374;10.662;2023-04-16T03:04:50;97122.44;;;7.50;100.00
72677;BME280;60755;51.374;10.662;2023-04-16T03:07:16;97123.03;;;7.52;100.00
72677;BME280;60755;51.374;10.662;2023-04-16T03:09:44;97123.03;;;7.52;100.00
72677;BME280;60755;51.374;10.662;2023-04-16T03:12:11;97128.69;;;7.49;100.00
72677;BME280;60755;51.374;10.662;2023-04-16T03:14:38;97125.06;;;7.50;100.00
72677;BME280;60755;51.374;10.662;2023-04-16T03:17:05;97127.22;;;7.53;100.00
72677;BME280;60755;51.374;10.662;2023-04-16T03:19:32;97128.25;;;7.52;100.00
72677;BME280;60755;51.374;10.662;2023-04-16T03:22:00;97135.28;;;7.51;100.00
72677;BME280;60755;51.374;10.662;2023-04-16T03:24:27;97135.97;;;7.47;100.00
72677;BME280;60755;51.374;10.662;2023-04-16T03:26:56;97142.78;;;7.48;100.00
72677;BME280;60755;51.374;10.662;2023-04-16T03:29:23;97139.16;;;7.49;100.00
72677;BME280;60755;51.374;10.662;2023-04-16T03:31:52;97138.34;;;7.48;100.00
72677;BME280;60755;51.374;10.662;2023-04-16T03:34:21;97145.63;;;7.46;100.00
72677;BME280;60755;51.374;10.662;2023-04-16T03:36:48;97137.56;;;7.48;100.00
72677;BME280;60755;51.374;10.662;2023-04-16T03:39:17;97143.94;;;7.52;100.00
72677;BME280;60755;51.374;10.662;2023-04-16T03:41:44;97149.59;;;7.49;100.00
72677;BME280;60755;51.374;10.662;2023-04-16T03:44:11;97144.38;;;7.49;100.00
72677;BME280;60755;51.374;10.662;2023-04-16T03:46:39;97149.16;;;7.52;100.00
72677;BME280;60755;51.374;10.662;2023-04-16T03:49:06;97150.47;;;7.43;100.00
72677;BME280;60755;51.374;10.662;2023-04-16T03:51:34;97156.13;;;7.40;100.00
72677;BME280;60755;51.374;10.662;2023-04-16T03:54:00;97154.09;;;7.42;100.00
72677;BME280;60755;51.374;10.662;2023-04-16T03:56:29;97160.56;;;7.39;100.00
72677;BME280;60755;51.374;10.662;2023-04-16T03:58:56;97159.78;;;7.39;100.00
72677;BME280;60755;51.374;10.662;2023-04-16T04:01:23;97160.56;;;7.39;100.00
72677;BME280;60755;51.374;10.662;2023-04-16T04:03:51;97165.78;;;7.39;100.00
72677;BME280;60755;51.374;10.662;2023-04-16T04:06:18;97165.78;;;7.39;100.00
72677;BME280;60755;51.374;10.662;2023-04-16T04:08:46;97169.63;;;7.37;100.00
72677;BME280;60755;51.374;10.662;2023-04-16T04:11:14;97170.81;;;7.41;100.00
72677;BME280;60755;51.374;10.662;2023-04-16T04:13:44;97174.66;;;7.38;100.00
72677;BME280;60755;51.374;10.662;2023-04-16T04:16:11;97170.41;;;7.37;100.00
72677;BME280;60755;51.374;10.662;2023-04-16T04:18:38;97175.72;;;7.31;100.00
72677;BME280;60755;51.374;10.662;2023-04-16T04:21:05;97173.25;;;7.36;100.00
72677;BME280;60755;51.374;10.662;2023-04-16T04:23:33;97169.16;;;7.46;100.00
72677;BME280;60755;51.374;10.662;2023-04-16T04:26:00;97176.25;;;7.39;100.00
72677;BME280;60755;51.374;10.662;2023-04-16T04:28:29;97175.75;;;7.49;100.00
72677;BME280;60755;51.374;10.662;2023-04-16T04:30:59;97174.56;;;7.45;100.00
72677;BME280;60755;51.374;10.662;2023-04-16T04:33:27;97183.31;;;7.39;100.00
72677;BME280;60755;51.374;10.662;2023-04-16T04:35:54;97181.09;;;7.36;100.00
72677;BME280;60755;51.374;10.662;2023-04-16T04:38:22;97174.28;;;7.35;100.00
72677;BME280;60755;51.374;10.662;2023-04-16T04:40:51;97180.06;;;7.37;100.00
72677;BME280;60755;51.374;10.662;2023-04-16T04:43:19;97182.91;;;7.35;100.00
72677;BME280;60755;51.374;10.662;2023-04-16T04:45:47;97187.56;;;7.33;100.00
72677;BME280;60755;51.374;10.662;2023-04-16T04:48:15;97197.00;;;7.34;100.00
72677;BME280;60755;51.374;10.662;2023-04-16T04:50:43;97199.78;;;7.39;100.00
72677;BME280;60755;51.374;10.662;2023-04-16T04:53:11;97204.34;;;7.44;100.00
72677;BME280;60755;51.374;10.662;2023-04-16T04:55:39;97209.63;;;7.37;100.00
72677;BME280;60755;51.374;10.662;2023-04-16T04:58:06;97214.06;;;7.37;100.00
72677;BME280;60755;51.374;10.662;2023-04-16T05:00:35;97210.66;;;7.36;100.00
72677;BME280;60755;51.374;10.662;2023-04-16T05:03:03;97211.25;;;7.38;100.00
72677;BME280;60755;51.374;10.662;2023-04-16T05:05:31;97210.66;;;7.36;100.00
72677;BME280;60755;51.374;10.662;2023-04-16T05:07:58;97217.34;;;7.32;100.00
72677;BME280;60755;51.374;10.662;2023-04-16T05:10:25;97221.16;;;7.29;100.00
72677;BME280;60755;51.374;10.662;2023-04-16T05:12:52;97217.56;;;7.31;100.00
72677;BME280;60755;51.374;10.662;2023-04-16T05:15:20;97221.16;;;7.29;100.00
72677;BME280;60755;51.374;10.662;2023-04-16T05:17:46;97219.78;;;7.27;100.00
72677;BME280;60755;51.374;10.662;2023-04-16T05:20:13;97227.84;;;7.25;100.00
72677;BME280;60755;51.374;10.662;2023-04-16T05:22:42;97228.69;;;7.19;100.00
72677;BME280;60755;51.374;10.662;2023-04-16T05:25:09;97230.28;;;7.20;100.00
72677;BME280;60755;51.374;10.662;2023-04-16T05:27:36;97236.13;;;7.22;100.00
72677;BME280;60755;51.374;10.662;2023-04-16T05:30:03;97225.44;;;7.24;100.00
72677;BME280;60755;51.374;10.662;2023-04-16T05:32:30;97235.69;;;7.25;100.00
72677;BME280;60755;51.374;10.662;2023-04-16T05:34:57;97239.88;;;7.26;100.00
72677;BME280;60755;51.374;10.662;2023-04-16T05:37:24;97234.66;;;7.26;100.00
72677;BME280;60755;51.374;10.662;2023-04-16T05:39:53;97253.19;;;7.25;100.00
72677;BME280;60755;51.374;10.662;2023-04-16T05:42:20;97241.47;;;7.27;100.00
72677;BME280;60755;51.374;10.662;2023-04-16T05:44:47;97245.78;;;7.22;100.00
72677;BME280;60755;51.374;10.662;2023-04-16T05:47:14;97256.00;;;7.23;100.00
72677;BME280;60755;51.374;10.662;2023-04-16T05:49:41;97251.56;;;7.24;100.00
72677;BME280;60755;51.374;10.662;2023-04-16T05:52:08;97262.25;;;7.22;100.00
72677;BME280;60755;51.374;10.662;2023-04-16T05:54:35;97260.03;;;7.19;100.00
72677;BME280;60755;51.374;10.662;2023-04-16T05:57:04;97264.91;;;7.16;100.00
72677;BME280;60755;51.374;10.662;2023-04-16T05:59:31;97268.56;;;7.08;100.00
72677;BME280;60755;51.374;10.662;2023-04-16T06:01:59;97266.75;;;7.09;100.00
72677;BME280;60755;51.374;10.662;2023-04-16T06:04:26;97252.09;;;7.08;100.00
72677;BME280;60755;51.374;10.662;2023-04-16T06:06:52;97262.69;;;7.13;100.00
72677;BME280;60755;51.374;10.662;2023-04-16T06:09:20;97260.09;;;7.13;100.00
72677;BME280;60755;51.374;10.662;2023-04-16T06:11:47;97258.44;;;7.18;100.00
72677;BME280;60755;51.374;10.662;2023-04-16T06:14:16;97264.47;;;7.19;100.00
72677;BME280;60755;51.374;10.662;2023-04-16T06:16:43;97278.72;;;7.23;100.00
72677;BME280;60755;51.374;10.662;2023-04-16T06:19:10;97270.50;;;7.19;100.00
72677;BME280;60755;51.374;10.662;2023-04-16T06:21:37;97276.31;;;7.21;100.00
72677;BME280;60755;51.374;10.662;2023-04-16T06:24:04;97282.59;;;7.14;100.00
72677;BME280;60755;51.374;10.662;2023-04-16T06:26:31;97274.97;;;7.12;100.00
72677;BME280;60755;51.374;10.662;2023-04-16T06:28:59;97278.22;;;7.08;100.00
72677;BME280;60755;51.374;10.662;2023-04-16T06:31:28;97278.25;;;7.01;100.00
72677;BME280;60755;51.374;10.662;2023-04-16T06:33:55;97286.69;;;7.03;100.00
72677;BME280;60755;51.374;10.662;2023-04-16T06:36:22;97285.44;;;7.06;100.00
72677;BME280;60755;51.374;10.662;2023-04-16T06:38:49;97284.63;;;7.12;100.00
72677;BME280;60755;51.374;10.662;2023-04-16T06:41:16;97282.41;;;7.15;100.00
72677;BME280;60755;51.374;10.662;2023-04-16T06:43:43;97286.97;;;7.20;100.00
72677;BME280;60755;51.374;10.662;2023-04-16T06:46:10;97285.34;;;7.25;100.00
72677;BME280;60755;51.374;10.662;2023-04-16T06:48:38;97291.00;;;7.22;100.00
72677;BME280;60755;51.374;10.662;2023-04-16T06:51:05;97287.50;;;7.28;100.00
72677;BME280;60755;51.374;10.662;2023-04-16T06:53:32;97299.19;;;7.26;100.00
72677;BME280;60755;51.374;10.662;2023-04-16T06:55:59;97300.53;;;7.35;100.00
72677;BME280;60755;51.374;10.662;2023-04-16T06:58:26;97301.34;;;7.36;100.00
72677;BME280;60755;51.374;10.662;2023-04-16T07:00:53;97301.34;;;7.36;100.00
72677;BME280;60755;51.374;10.662;2023-04-16T07:03:20;97301.78;;;7.33;100.00
72677;BME280;60755;51.374;10.662;2023-04-16T07:05:48;97298.31;;;7.39;100.00
72677;BME280;60755;51.374;10.662;2023-04-16T07:08:15;97309.75;;;7.38;100.00
72677;BME280;60755;51.374;10.662;2023-04-16T07:10:42;97312.81;;;7.35;100.00
72677;BME280;60755;51.374;10.662;2023-04-16T07:13:09;97304.16;;;7.34;100.00
72677;BME280;60755;51.374;10.662;2023-04-16T07:15:36;97309.97;;;7.36;100.00
72677;BME280;60755;51.374;10.662;2023-04-16T07:18:03;97307.81;;;7.33;100.00
72677;BME280;60755;51.374;10.662;2023-04-16T07:20:30;97303.44;;;7.52;100.00
72677;BME280;60755;51.374;10.662;2023-04-16T07:22:58;97309.69;;;7.51;100.00
72677;BME280;60755;51.374;10.662;2023-04-16T07:25:25;97306.44;;;7.55;100.00
72677;BME280;60755;51.374;10.662;2023-04-16T07:27:52;97308.63;;;7.58;100.00
72677;BME280;60755;51.374;10.662;2023-04-16T07:30:19;97314.59;;;7.66;100.00
72677;BME280;60755;51.374;10.662;2023-04-16T07:32:46;97322.38;;;7.72;100.00
72677;BME280;60755;51.374;10.662;2023-04-16T07:35:13;97316.50;;;7.77;100.00
72677;BME280;60755;51.374;10.662;2023-04-16T07:37:40;97314.31;;;7.74;100.00
72677;BME280;60755;51.374;10.662;2023-04-16T07:40:10;97324.88;;;7.85;100.00
72677;BME280;60755;51.374;10.662;2023-04-16T07:42:37;97325.66;;;8.11;100.00
72677;BME280;60755;51.374;10.662;2023-04-16T07:45:04;97338.69;;;7.93;100.00
72677;BME280;60755;51.374;10.662;2023-04-16T07:47:32;97342.50;;;7.97;100.00
72677;BME280;60755;51.374;10.662;2023-04-16T07:49:59;97338.78;;;7.86;100.00
72677;BME280;60755;51.374;10.662;2023-04-16T07:52:25;97340.53;;;7.67;100.00
72677;BME280;60755;51.374;10.662;2023-04-16T07:54:52;97340.75;;;7.91;100.00
72677;BME280;60755;51.374;10.662;2023-04-16T07:57:21;97352.72;;;7.80;100.00
72677;BME280;60755;51.374;10.662;2023-04-16T07:59:48;97347.34;;;7.68;100.00
72677;BME280;60755;51.374;10.662;2023-04-16T08:02:15;97353.28;;;7.57;100.00
72677;BME280;60755;51.374;10.662;2023-04-16T08:04:42;97350.91;;;7.80;100.00
72677;BME280;60755;51.374;10.662;2023-04-16T08:07:09;97354.94;;;7.76;100.00
72677;BME280;60755;51.374;10.662;2023-04-16T08:09:46;97361.72;;;7.84;100.00
72677;BME280;60755;51.374;10.662;2023-04-16T08:12:14;97366.47;;;7.94;100.00
72677;BME280;60755;51.374;10.662;2023-04-16T08:14:43;97366.91;;;7.91;100.00
72677;BME280;60755;51.374;10.662;2023-04-16T08:17:11;97371.13;;;7.67;100.00
72677;BME280;60755;51.374;10.662;2023-04-16T08:19:38;97371.78;;;7.62;100.00
72677;BME280;60755;51.374;10.662;2023-04-16T08:22:05;97383.41;;;7.66;100.00
72677;BME280;60755;51.374;10.662;2023-04-16T08:24:32;97384.44;;;7.58;100.00
72677;BME280;60755;51.374;10.662;2023-04-16T08:26:59;97379.88;;;7.54;100.00
72677;BME280;60755;51.374;10.662;2023-04-16T08:29:26;97388.78;;;7.46;100.00
72677;BME280;60755;51.374;10.662;2023-04-16T08:31:54;97394.94;;;7.52;100.00
72677;BME280;60755;51.374;10.662;2023-04-16T08:34:21;97396.22;;;7.43;100.00
72677;BME280;60755;51.374;10.662;2023-04-16T08:36:48;97402.72;;;7.34;100.00
72677;BME280;60755;51.374;10.662;2023-04-16T08:39:15;97403.03;;;7.44;100.00
72677;BME280;60755;51.374;10.662;2023-04-16T08:41:44;97404.28;;;7.41;100.00
72677;BME280;60755;51.374;10.662;2023-04-16T08:44:19;97407.25;;;7.45;100.00
72677;BME280;60755;51.374;10.662;2023-04-16T08:46:46;97407.06;;;7.46;100.00
72677;BME280;60755;51.374;10.662;2023-04-16T08:49:16;97412.09;;;7.48;100.00
72677;BME280;60755;51.374;10.662;2023-04-16T08:51:49;97414.00;;;7.59;100.00
72677;BME280;60755;51.374;10.662;2023-04-16T08:54:24;97409.13;;;7.69;100.00
72677;BME280;60755;51.374;10.662;2023-04-16T08:56:57;97417.06;;;7.56;100.00
72677;BME280;60755;51.374;10.662;2023-04-16T08:59:24;97415.47;;;7.55;100.00
72677;BME280;60755;51.374;10.662;2023-04-16T09:01:55;97418.88;;;7.55;100.00
72677;BME280;60755;51.374;10.662;2023-04-16T09:04:26;97421.91;;;7.52;100.00
72677;BME280;60755;51.374;10.662;2023-04-16T09:06:54;97420.75;;;7.42;100.00
72677;BME280;60755;51.374;10.662;2023-04-16T09:09:22;97415.56;;;7.35;100.00
72677;BME280;60755;51.374;10.662;2023-04-16T09:11:52;97429.03;;;7.39;100.00
72677;BME280;60755;51.374;10.662;2023-04-16T09:14:19;97424.50;;;7.52;100.00
72677;BME280;60755;51.374;10.662;2023-04-16T09:16:47;97428.41;;;7.37;100.00
72677;BME280;60755;51.374;10.662;2023-04-16T09:19:14;97441.31;;;7.38;100.00
72677;BME280;60755;51.374;10.662;2023-04-16T09:21:45;97444.19;;;7.23;100.00
72677;BME280;60755;51.374;10.662;2023-04-16T09:24:13;97445.00;;;7.17;100.00
72677;BME280;60755;51.374;10.662;2023-04-16T09:26:40;97449.25;;;7.12;100.00
72677;BME280;60755;51.374;10.662;2023-04-16T09:29:08;97448.22;;;7.13;100.00
72677;BME280;60755;51.374;10.662;2023-04-16T09:31:35;97449.84;;;7.14;100.00
72677;BME280;60755;51.374;10.662;2023-04-16T09:34:05;97459.94;;;7.48;100.00
72677;BME280;60755;51.374;10.662;2023-04-16T09:36:33;97454.78;;;7.35;100.00
72677;BME280;60755;51.374;10.662;2023-04-16T09:39:02;97452.63;;;7.25;100.00
72677;BME280;60755;51.374;10.662;2023-04-16T09:41:31;97463.50;;;7.22;100.00
72677;BME280;60755;51.374;10.662;2023-04-16T09:44:01;97463.28;;;7.24;100.00
72677;BME280;60755;51.374;10.662;2023-04-16T09:46:29;97468.72;;;7.22;100.00
72677;BME280;60755;51.374;10.662;2023-04-16T09:48:57;97471.50;;;7.27;100.00
72677;BME280;60755;51.374;10.662;2023-04-16T09:51:24;97471.03;;;7.44;100.00
72677;BME280;60755;51.374;10.662;2023-04-16T09:53:55;97473.47;;;7.39;100.00
72677;BME280;60755;51.374;10.662;2023-04-16T09:56:24;97477.25;;;7.43;100.00
72677;BME280;60755;51.374;10.662;2023-04-16T09:58:59;97482.38;;;7.24;100.00
72677;BME280;60755;51.374;10.662;2023-04-16T10:01:26;97480.53;;;7.32;100.00
72677;BME280;60755;51.374;10.662;2023-04-16T10:03:53;97482.72;;;7.35;100.00
72677;BME280;60755;51.374;10.662;2023-04-16T10:06:22;97492.81;;;7.31;100.00
72677;BME280;60755;51.374;10.662;2023-04-16T10:08:51;97492.72;;;7.44;100.00
72677;BME280;60755;51.374;10.662;2023-04-16T10:11:21;97497.25;;;7.24;100.00
72677;BME280;60755;51.374;10.662;2023-04-16T10:13:50;97496.94;;;7.45;100.00
72677;BME280;60755;51.374;10.662;2023-04-16T10:16:17;97504.84;;;7.39;100.00
72677;BME280;60755;51.374;10.662;2023-04-16T10:18:45;97509.41;;;7.50;100.00
72677;BME280;60755;51.374;10.662;2023-04-16T10:21:12;97508.41;;;7.51;100.00
72677;BME280;60755;51.374;10.662;2023-04-16T10:23:42;97516.91;;;7.40;100.00
72677;BME280;60755;51.374;10.662;2023-04-16T10:26:09;97520.94;;;7.36;100.00
72677;BME280;60755;51.374;10.662;2023-04-16T10:28:36;97523.28;;;7.50;100.00
72677;BME280;60755;51.374;10.662;2023-04-16T10:31:06;97518.50;;;7.41;100.00
72677;BME280;60755;51.374;10.662;2023-04-16T10:36:53;97524.91;;;7.45;100.00
72677;BME280;60755;51.374;10.662;2023-04-16T10:39:22;97524.31;;;7.49;100.00
72677;BME280;60755;51.374;10.662;2023-04-16T10:41:49;97523.84;;;7.59;100.00
72677;BME280;60755;51.374;10.662;2023-04-16T10:44:18;97524.06;;;7.57;100.00
72677;BME280;60755;51.374;10.662;2023-04-16T10:46:47;97528.50;;;7.57;100.00
72677;BME280;60755;51.374;10.662;2023-04-16T10:49:18;97521.66;;;7.56;100.00
72677;BME280;60755;51.374;10.662;2023-04-16T10:51:53;97522.59;;;7.68;100.00
72677;BME280;60755;51.374;10.662;2023-04-16T10:54:23;97515.50;;;7.82;100.00
72677;BME280;60755;51.374;10.662;2023-04-16T10:56:52;97518.91;;;8.14;100.00
72677;BME280;60755;51.374;10.662;2023-04-16T10:59:20;97523.28;;;8.27;100.00
72677;BME280;60755;51.374;10.662;2023-04-16T11:01:50;97526.22;;;8.05;100.00
72677;BME280;60755;51.374;10.662;2023-04-16T11:04:29;97530.97;;;7.83;100.00
72677;BME280;60755;51.374;10.662;2023-04-16T11:07:06;97529.53;;;7.94;100.00
72677;BME280;60755;51.374;10.662;2023-04-16T11:09:53;97538.28;;;8.06;100.00
72677;BME280;60755;51.374;10.662;2023-04-16T11:12:22;97534.00;;;8.19;100.00
72677;BME280;60755;51.374;10.662;2023-04-16T11:14:50;97532.56;;;8.23;100.00
72677;BME280;60755;51.374;10.662;2023-04-16T11:17:19;97535.69;;;8.38;100.00
72677;BME280;60755;51.374;10.662;2023-04-16T11:19:46;97538.91;;;8.33;100.00
72677;BME280;60755;51.374;10.662;2023-04-16T11:22:15;97539.78;;;8.27;100.00
72677;BME280;60755;51.374;10.662;2023-04-16T11:24:43;97534.91;;;8.37;100.00
72677;BME280;60755;51.374;10.662;2023-04-16T11:27:13;97540.28;;;8.11;100.00
72677;BME280;60755;51.374;10.662;2023-04-16T11:29:41;97542.09;;;8.10;100.00
72677;BME280;60755;51.374;10.662;2023-04-16T11:32:08;97549.00;;;8.36;100.00
72677;BME280;60755;51.374;10.662;2023-04-16T11:34:44;97549.50;;;8.20;100.00
72677;BME280;60755;51.374;10.662;2023-04-16T11:37:11;97547.47;;;8.22;100.00
72677;BME280;60755;51.374;10.662;2023-04-16T11:39:51;97544.06;;;8.15;100.00
72677;BME280;60755;51.374;10.662;2023-04-16T11:42:19;97551.16;;;8.08;100.00
72677;BME280;60755;51.374;10.662;2023-04-16T11:44:51;97552.19;;;8.07;100.00
72677;BME280;60755;51.374;10.662;2023-04-16T11:47:19;97547.16;;;8.05;100.00
72677;BME280;60755;51.374;10.662;2023-04-16T11:49:47;97549.09;;;8.17;100.00
72677;BME280;60755;51.374;10.662;2023-04-16T11:52:24;97543.91;;;8.10;100.00
72677;BME280;60755;51.374;10.662;2023-04-16T11:54:52;97548.41;;;8.03;100.00
72677;BME280;60755;51.374;10.662;2023-04-16T11:57:24;97553.56;;;8.09;100.00
72677;BME280;60755;51.374;10.662;2023-04-16T11:59:51;97546.09;;;8.13;100.00
72677;BME280;60755;51.374;10.662;2023-04-16T12:02:33;97549.75;;;8.12;100.00
72677;BME280;60755;51.374;10.662;2023-04-16T12:05:02;97550.31;;;8.14;100.00
72677;BME280;60755;51.374;10.662;2023-04-16T12:07:29;97543.16;;;8.34;100.00
72677;BME280;60755;51.374;10.662;2023-04-16T12:10:04;97558.47;;;8.37;100.00
72677;BME280;60755;51.374;10.662;2023-04-16T12:12:32;97551.84;;;8.28;100.00
72677;BME280;60755;51.374;10.662;2023-04-16T12:15:00;97545.53;;;8.11;100.00
72677;BME280;60755;51.374;10.662;2023-04-16T12:17:28;97565.28;;;8.07;100.00
72677;BME280;60755;51.374;10.662;2023-04-16T12:19:57;97557.69;;;7.92;100.00
72677;BME280;60755;51.374;10.662;2023-04-16T12:22:29;97555.22;;;8.04;100.00
72677;BME280;60755;51.374;10.662;2023-04-16T12:25:00;97561.63;;;8.08;100.00
72677;BME280;60755;51.374;10.662;2023-04-16T12:27:45;97562.84;;;8.12;100.00
72677;BME280;60755;51.374;10.662;2023-04-16T12:30:14;97558.81;;;8.09;100.00
72677;BME280;60755;51.374;10.662;2023-04-16T12:32:45;97554.75;;;8.13;100.00
72677;BME280;60755;51.374;10.662;2023-04-16T12:35:13;97560.22;;;8.12;100.00
72677;BME280;60755;51.374;10.662;2023-04-16T12:37:55;97561.13;;;8.24;100.00
72677;BME280;60755;51.374;10.662;2023-04-16T12:40:22;97561.78;;;8.20;100.00
72677;BME280;60755;51.374;10.662;2023-04-16T12:42:50;97567.78;;;8.27;100.00
72677;BME280;60755;51.374;10.662;2023-04-16T12:45:17;97561.09;;;8.37;100.00
72677;BME280;60755;51.374;10.662;2023-04-16T12:47:44;97560.81;;;8.71;100.00
72677;BME280;60755;51.374;10.662;2023-04-16T12:50:11;97565.81;;;9.40;100.00
72677;BME280;60755;51.374;10.662;2023-04-16T12:52:38;97568.78;;;9.80;97.66
72677;BME280;60755;51.374;10.662;2023-04-16T12:55:07;97575.22;;;9.96;95.00
72677;BME280;60755;51.374;10.662;2023-04-16T12:57:34;97569.19;;;9.96;94.76
72677;BME280;60755;51.374;10.662;2023-04-16T13:00:02;97569.72;;;9.68;94.34